createdAt,value
2023-05-01T00:01:02.394Z,-11148.25
2023-05-01T00:04:08.724Z,-11148.97
2023-05-01T00:07:16.507Z,-11145.03
2023-05-01T00:10:22.673Z,-11137.72
2023-05-01T00:13:28.685Z,-11143.78
2023-05-01T00:16:36.361Z,-11137.44
2023-05-01T00:19:42.480Z,-11140.25
2023-05-01T00:22:49.879Z,-11136.31
2023-05-01T00:25:55.780Z,-11132.25
2023-05-01T00:29:02.070Z,-11098.97
2023-05-01T00:32:08.508Z,-11113.56
2023-05-01T00:35:14.581Z,-11105.44
2023-05-01T00:38:23.961Z,-11116.38
2023-05-01T00:41:30.351Z,-11112.88
2023-05-01T00:44:36.540Z,-11113.16
2023-05-01T00:47:42.710Z,-11118.06
2023-05-01T00:50:50.405Z,-11115.81
2023-05-01T00:54:00.950Z,-11094.75
2023-05-01T00:57:08.411Z,-11092.78
2023-05-01T01:00:16.976Z,-11083.50
2023-05-01T01:03:23.125Z,-11080.44
2023-05-01T01:06:39.375Z,-11084.34
2023-05-01T01:09:57.830Z,-11088.84
2023-05-01T01:13:13.524Z,-11087.72
2023-05-01T01:16:24.779Z,-11091.94
2023-05-01T01:20:19.855Z,-11096.16
2023-05-01T01:24:13.973Z,-11107.13
2023-05-01T01:27:52.489Z,-11110.47
2023-05-01T01:31:12.242Z,-11108.22
2023-05-01T01:34:26.608Z,-11105.00
2023-05-01T01:37:44.293Z,-11107.97
2023-05-01T01:40:56.685Z,-11099.25
2023-05-01T01:44:13.528Z,-11115.53
2023-05-01T01:47:21.964Z,-11109.06
2023-05-01T01:50:32.468Z,-11116.09
2023-05-01T01:53:40.521Z,-11117.78
2023-05-01T01:56:48.800Z,-11112.44
2023-05-01T01:59:56.726Z,-11107.69
2023-05-01T02:03:04.825Z,-11106.84
2023-05-01T02:06:15.474Z,-11110.06
2023-05-01T02:09:23.245Z,-11101.63
2023-05-01T02:12:30.784Z,-11086.88
2023-05-01T02:15:37.383Z,-11088.28
2023-05-01T02:18:45.953Z,-11093.63
2023-05-01T02:21:55.305Z,-11065.13
2023-05-01T02:25:03.523Z,-11042.97
2023-05-01T02:28:13.885Z,-11060.50
2023-05-01T02:31:20.223Z,-11048.44
2023-05-01T02:34:26.227Z,-11049.97
2023-05-01T02:37:34.061Z,-11051.78
2023-05-01T02:40:41.236Z,-11067.22
2023-05-01T02:43:53.070Z,-11073.84
2023-05-01T02:47:02.246Z,-11082.41
2023-05-01T02:50:10.129Z,-11098.69
2023-05-01T02:53:18.819Z,-11101.22
2023-05-01T02:56:27.121Z,-11100.94
2023-05-01T02:59:33.467Z,-11106.56
2023-05-01T03:02:40.105Z,-11108.09
2023-05-01T03:05:46.363Z,-11102.06
2023-05-01T03:08:54.337Z,-11098.25
2023-05-01T03:12:01.174Z,-11106.00
2023-05-01T03:15:08.800Z,-11105.44
2023-05-01T03:18:15.579Z,-11109.34
2023-05-01T03:21:21.872Z,-11112.88
2023-05-01T03:24:29.403Z,-11112.31
2023-05-01T03:27:35.613Z,-11110.63
2023-05-01T03:30:41.516Z,-11111.47
2023-05-01T03:33:48.132Z,-11112.72
2023-05-01T03:36:54.481Z,-11108.37
2023-05-01T03:40:02.379Z,-11085.34
2023-05-01T03:43:08.605Z,-11078.19
2023-05-01T03:46:14.653Z,-11072.28
2023-05-01T03:49:20.724Z,-11077.91
2023-05-01T03:52:27.462Z,-11075.94
2023-05-01T03:55:34.964Z,-11077.34
2023-05-01T03:58:41.120Z,-11085.47
2023-05-01T04:01:47.533Z,-11093.91
2023-05-01T04:04:53.675Z,-11104.16
2023-05-01T04:07:59.712Z,-11105.72
2023-05-01T04:11:07.597Z,-11125.09
2023-05-01T04:14:13.685Z,-11121.84
2023-05-01T04:17:19.755Z,-11143.06
2023-05-01T04:20:25.826Z,-11145.59
2023-05-01T04:23:31.909Z,-11149.38
2023-05-01T04:26:39.254Z,-11160.22
2023-05-01T04:29:45.457Z,-11159.38
2023-05-01T04:32:51.455Z,-11146.28
2023-05-01T04:35:57.486Z,-11134.34
2023-05-01T04:39:03.644Z,-11146.72
2023-05-01T04:42:11.006Z,-11156.84
2023-05-01T04:45:17.205Z,-11164.16
2023-05-01T04:48:23.736Z,-11177.22
2023-05-01T04:51:30.290Z,-11173.97
2023-05-01T04:54:36.673Z,-11185.94
2023-05-01T04:57:44.232Z,-11167.53
2023-05-01T05:00:50.504Z,-11168.37
2023-05-01T05:03:56.811Z,-11180.03
2023-05-01T05:07:03.019Z,-11199.84
2023-05-01T05:10:09.886Z,-11203.50
2023-05-01T05:13:17.287Z,-11210.97
2023-05-01T05:16:23.613Z,-11219.53
2023-05-01T05:19:29.499Z,-11207.59
2023-05-01T05:22:37.450Z,-11227.41
2023-05-01T05:25:43.804Z,-11235.03
2023-05-01T05:28:51.712Z,-11247.25
2023-05-01T05:31:59.821Z,-11236.72
2023-05-01T05:35:06.605Z,-11242.03
2023-05-01T05:38:12.689Z,-11239.38
2023-05-01T05:41:18.909Z,-11242.03
2023-05-01T05:44:26.669Z,-11246.00
2023-05-01T05:47:32.830Z,-11257.38
2023-05-01T05:50:39.040Z,-11250.78
2023-05-01T05:53:45.480Z,-11241.91
2023-05-01T05:56:51.718Z,-11260.06
2023-05-01T05:59:59.612Z,-11281.16
2023-05-01T06:03:07.339Z,-11274.97
2023-05-01T06:06:13.627Z,-11277.50
2023-05-01T06:09:20.353Z,-11285.13
2023-05-01T06:12:26.493Z,-11283.13
2023-05-01T06:15:35.013Z,-11272.44
2023-05-01T06:18:41.124Z,-11297.63
2023-05-01T06:21:47.247Z,-11278.34
2023-05-01T06:24:53.572Z,-11287.78
2023-05-01T06:28:00.167Z,-11312.00
2023-05-01T06:31:07.701Z,-11288.63
2023-05-01T06:34:14.193Z,-11289.34
2023-05-01T06:37:21.161Z,-11321.16
2023-05-01T06:40:27.014Z,-11305.94
2023-05-01T06:43:33.642Z,-11335.66
2023-05-01T06:46:41.462Z,-11342.41
2023-05-01T06:49:47.920Z,-11359.47
2023-05-01T06:52:53.742Z,-11325.38
2023-05-01T06:56:00.111Z,-11354.81
2023-05-01T06:59:06.227Z,-11372.16
2023-05-01T07:02:13.921Z,-11370.72
2023-05-01T07:05:20.497Z,-11353.13
2023-05-01T07:08:28.328Z,-11368.47
2023-05-01T07:11:35.027Z,-11390.19
2023-05-01T07:14:41.913Z,-11369.31
2023-05-01T07:17:49.608Z,-11374.97
2023-05-01T07:20:55.943Z,-11389.47
2023-05-01T07:24:02.070Z,-11392.00
2023-05-01T07:27:08.348Z,-11415.12
2023-05-01T07:30:14.669Z,-11399.06
2023-05-01T07:33:22.232Z,-11389.03
2023-05-01T07:36:28.609Z,-11387.50
2023-05-01T07:39:34.669Z,-11420.91
2023-05-01T07:42:41.073Z,-11436.13
2023-05-01T07:45:56.599Z,-11435.56
2023-05-01T07:49:04.418Z,-11430.50
2023-05-01T07:52:11.081Z,-11452.63
2023-05-01T07:55:19.381Z,-11419.34
2023-05-01T07:58:25.473Z,-11415.41
2023-05-01T08:01:31.876Z,-11451.91
2023-05-01T08:04:39.775Z,-11474.19
2023-05-01T08:07:46.670Z,-11466.59
2023-05-01T08:10:53.483Z,-11478.84
2023-05-01T08:13:59.433Z,-11482.09
2023-05-01T08:17:05.346Z,-11489.16
2023-05-01T08:20:14.350Z,-11516.09
2023-05-01T08:23:20.291Z,-11503.97
2023-05-01T08:26:26.523Z,-11494.38
2023-05-01T08:29:32.691Z,-11470.53
2023-05-01T08:32:38.684Z,-11484.22
2023-05-01T08:35:46.417Z,-11511.16
2023-05-01T08:38:53.033Z,-11524.41
2023-05-01T08:42:00.153Z,-11540.50
2023-05-01T08:45:09.516Z,-11505.38
2023-05-01T08:48:19.188Z,-11522.16
2023-05-01T08:51:27.450Z,-11493.66
2023-05-01T08:54:36.679Z,-11532.88
2023-05-01T08:57:47.013Z,-11555.47
2023-05-01T09:00:56.667Z,-11531.59
2023-05-01T09:04:05.201Z,-11522.72
2023-05-01T09:07:13.587Z,-11515.25
2023-05-01T09:10:20.121Z,-11526.41
2023-05-01T09:13:27.008Z,-11499.88
2023-05-01T09:16:33.754Z,-11526.94
2023-05-01T09:19:40.880Z,-11513.13
2023-05-01T09:22:48.696Z,-11488.03
2023-05-01T09:25:56.411Z,-11467.16
2023-05-01T09:29:02.991Z,-11497.88
2023-05-01T09:32:20.806Z,-11494.78
2023-05-01T09:35:28.146Z,-11527.53
2023-05-01T09:38:35.306Z,-11492.81
2023-05-01T09:41:53.328Z,-11475.34
2023-05-01T09:45:00.193Z,-11527.81
2023-05-01T09:48:11.929Z,-11503.53
2023-05-01T09:51:23.173Z,-11465.16
2023-05-01T09:54:30.971Z,-11480.69
2023-05-01T09:57:38.333Z,-11451.91
2023-05-01T10:00:51.062Z,-11485.47
2023-05-01T10:03:57.909Z,-11475.91
2023-05-01T10:07:14.485Z,-11481.38
2023-05-01T10:10:23.550Z,-11455.31
2023-05-01T10:13:30.203Z,-11486.31
2023-05-01T10:16:37.243Z,-11479.56
2023-05-01T10:19:43.352Z,-11476.19
2023-05-01T10:22:50.065Z,-11499.31
2023-05-01T10:25:58.610Z,-11500.16
2023-05-01T10:29:06.120Z,-11504.38
2023-05-01T10:32:12.780Z,-11481.81
2023-05-01T10:35:26.052Z,-11474.19
2023-05-01T10:38:35.547Z,-11465.31
2023-05-01T10:42:04.865Z,-11447.69
2023-05-01T10:45:29.332Z,-11439.50
2023-05-01T10:48:54.571Z,-11423.72
2023-05-01T10:52:03.814Z,-11393.28
2023-05-01T10:55:35.298Z,-11416.09
2023-05-01T10:59:04.781Z,-11398.78
2023-05-01T11:02:23.675Z,-11399.75
2023-05-01T11:06:03.900Z,-11382.84
2023-05-01T11:09:43.946Z,-11384.25
2023-05-01T11:12:53.731Z,-11386.50
2023-05-01T11:16:21.199Z,-11374.53
2023-05-01T11:19:48.382Z,-11360.88
2023-05-01T11:22:55.861Z,-11367.34
2023-05-01T11:26:08.795Z,-11355.22
2023-05-01T11:29:14.952Z,-11360.03
2023-05-01T11:32:26.503Z,-11365.38
2023-05-01T11:35:34.212Z,-11362.00
2023-05-01T11:38:40.663Z,-11365.66
2023-05-01T11:41:47.325Z,-11377.78
2023-05-01T11:45:12.072Z,-11374.69
2023-05-01T11:48:20.145Z,-11384.97
2023-05-01T11:51:27.016Z,-11380.03
2023-05-01T11:54:33.254Z,-11382.00
2023-05-01T11:57:49.983Z,-11389.75
2023-05-01T12:00:55.971Z,-11399.47
2023-05-01T12:04:04.062Z,-11408.50
2023-05-01T12:07:21.927Z,-11400.31
2023-05-01T12:10:28.325Z,-11403.00
2023-05-01T12:13:34.706Z,-11405.53
2023-05-01T12:16:42.438Z,-11413.16
2023-05-01T12:19:50.086Z,-11429.09
2023-05-01T12:22:56.557Z,-11419.22
2023-05-01T12:26:04.544Z,-11415.53
2023-05-01T12:29:16.405Z,-11429.50
2023-05-01T12:32:34.024Z,-11430.34
2023-05-01T12:35:45.449Z,-11435.69
2023-05-01T12:38:57.524Z,-11428.66
2023-05-01T12:42:03.433Z,-11449.81
2023-05-01T12:45:14.870Z,-11460.38
2023-05-01T12:48:21.839Z,-11500.16
2023-05-01T12:51:29.432Z,-11463.34
2023-05-01T12:54:37.825Z,-11454.47
2023-05-01T12:57:54.832Z,-11469.69
2023-05-01T13:01:01.001Z,-11479.00
2023-05-01T13:04:07.348Z,-11469.53
2023-05-01T13:07:16.455Z,-11454.88
2023-05-01T13:10:32.822Z,-11471.09
2023-05-01T13:13:39.481Z,-11492.81
2023-05-01T13:16:47.598Z,-11475.06
2023-05-01T13:19:58.356Z,-11482.53
2023-05-01T13:23:13.001Z,-11501.00
2023-05-01T13:26:19.704Z,-11494.66
2023-05-01T13:29:27.050Z,-11467.72
2023-05-01T13:32:33.343Z,-11462.06
2023-05-01T13:35:41.215Z,-11479.41
2023-05-01T13:38:51.563Z,-11473.34
2023-05-01T13:41:57.862Z,-11474.75
2023-05-01T13:45:07.905Z,-11428.53
2023-05-01T13:48:14.313Z,-11441.06
2023-05-01T13:51:23.205Z,-11437.53
2023-05-01T13:54:30.968Z,-11421.19
2023-05-01T13:57:37.805Z,-11412.88
2023-05-01T14:00:46.218Z,-11417.94
2023-05-01T14:03:53.068Z,-11414.97
2023-05-01T14:07:01.443Z,-11406.25
2023-05-01T14:10:11.261Z,-11404.84
2023-05-01T14:13:19.958Z,-11404.69
2023-05-01T14:16:28.012Z,-11413.44
2023-05-01T14:19:34.615Z,-11410.19
2023-05-01T14:22:45.683Z,-11387.06
2023-05-01T14:25:53.675Z,-11398.06
2023-05-01T14:28:59.813Z,-11399.34
2023-05-01T14:32:06.707Z,-11392.00
2023-05-01T14:35:12.573Z,-11384.13
2023-05-01T14:38:20.031Z,-11384.81
2023-05-01T14:41:28.026Z,-11368.63
2023-05-01T14:44:34.775Z,-11362.00
2023-05-01T14:47:42.603Z,-11343.81
2023-05-01T14:50:48.669Z,-11348.19
2023-05-01T14:53:55.235Z,-11342.41
2023-05-01T14:57:06.620Z,-11341.16
2023-05-01T15:00:14.039Z,-11344.81
2023-05-01T15:03:20.404Z,-11347.06
2023-05-01T15:06:27.405Z,-11338.34
2023-05-01T15:09:33.858Z,-11335.22
2023-05-01T15:12:41.577Z,-11336.94
2023-05-01T15:15:47.563Z,-11338.63
2023-05-01T15:18:53.456Z,-11339.47
2023-05-01T15:21:59.467Z,-11338.75
2023-05-01T15:25:06.268Z,-11336.38
2023-05-01T15:28:14.981Z,-11336.78
2023-05-01T15:31:21.602Z,-11335.22
2023-05-01T15:34:28.000Z,-11333.56
2023-05-01T15:37:34.332Z,-11327.50
2023-05-01T15:40:40.563Z,-11328.91
2023-05-01T15:43:48.483Z,-11331.44
2023-05-01T15:46:55.074Z,-11335.38
2023-05-01T15:50:01.615Z,-11336.38
2023-05-01T15:53:08.365Z,-11337.50
2023-05-01T15:56:14.372Z,-11334.53
2023-05-01T15:59:22.356Z,-11334.09
2023-05-01T16:02:32.961Z,-11332.84
2023-05-01T16:05:40.716Z,-11330.59
2023-05-01T16:08:47.090Z,-11331.72
2023-05-01T16:11:53.412Z,-11330.03
2023-05-01T16:15:03.524Z,-11321.28
2023-05-01T16:18:11.390Z,-11323.69
2023-05-01T16:21:19.746Z,-11323.13
2023-05-01T16:24:26.595Z,-11321.84
2023-05-01T16:27:33.044Z,-11320.31
2023-05-01T16:30:43.949Z,-11319.31
2023-05-01T16:33:51.712Z,-11311.44
2023-05-01T16:36:58.449Z,-11309.88
2023-05-01T16:40:05.422Z,-11304.81
2023-05-01T16:43:11.820Z,-11300.31
2023-05-01T16:46:19.552Z,-11300.03
2023-05-01T16:49:27.422Z,-11291.88
2023-05-01T16:52:33.938Z,-11286.09
2023-05-01T16:55:40.184Z,-11282.56
2023-05-01T16:58:46.496Z,-11278.06
2023-05-01T17:01:54.249Z,-11274.12
2023-05-01T17:05:00.729Z,-11272.16
2023-05-01T17:08:06.944Z,-11270.75
2023-05-01T17:11:14.632Z,-11270.19
2023-05-01T17:14:21.124Z,-11266.41
2023-05-01T17:17:28.874Z,-11269.91
2023-05-01T17:20:35.170Z,-11272.44
2023-05-01T17:23:41.446Z,-11269.63
2023-05-01T17:26:47.875Z,-11269.78
2023-05-01T17:29:54.039Z,-11266.53
2023-05-01T17:33:01.741Z,-11265.97
2023-05-01T17:36:08.154Z,-11264.00
2023-05-01T17:39:14.694Z,-11260.63
2023-05-01T17:42:20.989Z,-11259.78
2023-05-01T17:45:26.937Z,-11266.81
2023-05-01T17:48:34.483Z,-11264.00
2023-05-01T17:51:40.840Z,-11259.34
2023-05-01T17:54:47.210Z,-11258.22
2023-05-01T17:57:53.757Z,-11258.22
2023-05-01T18:01:00.401Z,-11258.94
2023-05-01T18:04:09.141Z,-11259.78
2023-05-01T18:07:15.643Z,-11255.13
2023-05-01T18:10:21.897Z,-11260.06
2023-05-01T18:13:30.034Z,-11259.22
2023-05-01T18:16:36.631Z,-11260.47
2023-05-01T18:19:44.288Z,-11258.22
2023-05-01T18:22:50.756Z,-11261.59
2023-05-01T18:25:57.122Z,-11256.81
2023-05-01T18:29:03.849Z,-11253.44
2023-05-01T18:32:12.762Z,-11247.41
2023-05-01T18:35:21.894Z,-11241.63
2023-05-01T18:38:28.921Z,-11241.19
2023-05-01T18:41:35.651Z,-11247.81
2023-05-01T18:44:41.638Z,-11246.00
2023-05-01T18:47:48.033Z,-11241.75
2023-05-01T18:51:07.906Z,-11245.72
2023-05-01T18:54:16.364Z,-11240.22
2023-05-01T18:57:22.711Z,-11240.06
2023-05-01T19:00:29.337Z,-11240.50
2023-05-01T19:03:35.699Z,-11235.31
2023-05-01T19:06:43.594Z,-11235.88
2023-05-01T19:09:49.953Z,-11235.03
2023-05-01T19:12:56.431Z,-11238.38
2023-05-01T19:16:03.237Z,-11237.56
2023-05-01T19:19:10.949Z,-11237.13
2023-05-01T19:22:18.683Z,-11237.84
2023-05-01T19:25:25.317Z,-11233.31
2023-05-01T19:28:31.821Z,-11227.97
2023-05-01T19:31:38.696Z,-11228.53
2023-05-01T19:34:45.458Z,-11231.78
2023-05-01T19:37:56.721Z,-11232.63
2023-05-01T19:41:03.432Z,-11230.66
2023-05-01T19:44:10.305Z,-11223.19
2023-05-01T19:47:16.512Z,-11225.44
2023-05-01T19:50:22.828Z,-11225.16
2023-05-01T19:53:31.351Z,-11222.34
2023-05-01T19:56:38.702Z,-11222.06
2023-05-01T19:59:45.104Z,-11221.66
2023-05-01T20:02:51.504Z,-11220.81
2023-05-01T20:05:58.580Z,-11218.41
2023-05-01T20:09:07.331Z,-11218.00
2023-05-01T20:12:13.509Z,-11208.72
2023-05-01T20:15:20.080Z,-11206.03
2023-05-01T20:18:26.719Z,-11213.91
2023-05-01T20:21:32.952Z,-11211.09
2023-05-01T20:24:41.217Z,-11213.34
2023-05-01T20:27:47.396Z,-11207.88
2023-05-01T20:30:54.092Z,-11201.81
2023-05-01T20:34:00.899Z,-11203.38
2023-05-01T20:37:07.049Z,-11199.72
2023-05-01T20:40:16.566Z,-11200.13
2023-05-01T20:43:22.464Z,-11200.56
2023-05-01T20:46:28.729Z,-11196.06
2023-05-01T20:49:34.876Z,-11198.72
2023-05-01T20:52:41.309Z,-11197.47
2023-05-01T20:55:49.941Z,-11198.59
2023-05-01T20:58:56.314Z,-11192.25
2023-05-01T21:02:05.470Z,-11186.34
2023-05-01T21:05:12.121Z,-11183.81
2023-05-01T21:08:18.459Z,-11182.41
2023-05-01T21:11:26.285Z,-11182.13
2023-05-01T21:14:32.401Z,-11178.47
2023-05-01T21:17:40.847Z,-11191.69
2023-05-01T21:20:48.368Z,-11194.78
2023-05-01T21:23:55.042Z,-11187.91
2023-05-01T21:27:03.896Z,-11188.03
2023-05-01T21:30:16.081Z,-11187.19
2023-05-01T21:33:22.241Z,-11189.72
2023-05-01T21:36:28.353Z,-11189.16
2023-05-01T21:39:34.808Z,-11193.94
2023-05-01T21:42:42.209Z,-11192.25
2023-05-01T21:45:48.281Z,-11188.31
2023-05-01T21:48:54.544Z,-11192.69
2023-05-01T21:52:01.205Z,-11193.94
2023-05-01T21:55:09.309Z,-11189.44
2023-05-01T21:58:16.790Z,-11192.69
2023-05-01T22:01:24.703Z,-11190.44
2023-05-01T22:04:31.565Z,-11193.38
2023-05-01T22:07:40.118Z,-11193.38
2023-05-01T22:10:46.274Z,-11189.44
2023-05-01T22:13:54.345Z,-11191.41
2023-05-01T22:17:00.777Z,-11191.28
2023-05-01T22:20:10.005Z,-11190.00
2023-05-01T22:23:16.144Z,-11189.72
2023-05-01T22:26:22.201Z,-11180.72
2023-05-01T22:29:29.902Z,-11186.06
2023-05-01T22:32:36.678Z,-11184.66
2023-05-01T22:35:43.001Z,-11182.97
2023-05-01T22:38:49.201Z,-11180.31
2023-05-01T22:41:55.763Z,-11179.19
2023-05-01T22:45:03.178Z,-11176.22
2023-05-01T22:48:10.605Z,-11174.53
2023-05-01T22:51:16.732Z,-11172.59
2023-05-01T22:54:22.608Z,-11178.91
2023-05-01T22:57:28.843Z,-11178.06
2023-05-01T23:00:36.742Z,-11178.19
2023-05-01T23:03:43.043Z,-11178.47
2023-05-01T23:06:49.178Z,-11174.69
2023-05-01T23:09:57.373Z,-11175.81
2023-05-01T23:13:05.043Z,-11167.25
2023-05-01T23:16:15.586Z,-11169.78
2023-05-01T23:19:23.289Z,-11170.34
2023-05-01T23:22:31.310Z,-11164.28
2023-05-01T23:25:37.504Z,-11159.94
2023-05-01T23:28:44.112Z,-11163.03
2023-05-01T23:31:51.942Z,-11161.34
2023-05-01T23:35:06.218Z,-11160.63
2023-05-01T23:38:13.925Z,-11159.66
2023-05-01T23:41:20.553Z,-11158.81
2023-05-01T23:44:26.921Z,-11148.81
2023-05-01T23:47:35.028Z,-11152.34
2023-05-01T23:50:41.557Z,-11152.19
2023-05-01T23:53:48.008Z,-11152.91
2023-05-01T23:56:54.598Z,-11153.19
